Aktualne dane pomiarowe

Uwaga, wersja testowa! Automatyczne pobieranie danych za pomocą narzędzi lub skryptów to umożliwiających jest zabronione.

Dane meteo z obszaru Polski uzyskane na podstawie depesz SYNOP pobieranych co godzinę z NWS. Najedź myszką na symbol przedstawiony w tabeli, aby uzyskać informacje co do jego znaczenia. Prosimy pamiętać, że to testowa wersja strony, która jeszcze nie jest ukończona. Stworzono również jest krótki FAQ dotyczący korzystania z tej podstrony Anomalie temperatury w chwili obecnej odniesione są do okresu referencyjnego 1951-2016. Okres ten będzie później zmieniony na 1981-2010. Kliknij ikonę aby pobrać plik CSV. Kliknij ikonę aby wygenerować mapę synoptyczną dla danego terminu.

Wybierz Datę:    

        

Włodawa (12497)

Dane terminowe dla wybranej stacji. Kliknij datę, aby otrzymać dane z tego terminu dla wszystkich stacji.

TemperaturaZachmurzenieWiatrCiśnienieOpadyPogoda
 Data t td wb tx tn tg rh  Nt Nl Cl Cm Ch ws wd g1 g2 wx mslp ppp ch 24h 12h t ww ww w1 w2  
2019-06-18 23:00:00 16.9 15.4 15.8--- 9120.0wx-wx2wx--21018.1 997.0 -0.1---------
2019-06-18 22:00:00 17.4 15.0 15.7--- 8620.0wx-wx1wx---1018.6 997.5 0.4---------
2019-06-18 21:00:00 17.9 15.2 16.0--- 8420.0wx-wx0---01018.5 997.4 0.7---------
2019-06-18 20:00:00 19.1 15.2 16.4--- 7820.0wxwxwxwx2wx--21018.1 997.1 0.2---------
2019-06-18 19:00:00 21.0 15.3 17.2--- 7020.0wxwxwxwx2wx--21017.9 997.1 0.0---------
2019-06-18 18:00:00 23.3 15.9 18.4 27.1 18.8- 6320.0wx-wxwx2wx--21017.4 996.7 -0.5- 0.012------
2019-06-18 17:00:00 25.0 13.2 17.7--- 4820.0wxwxwxwxwx2wx---1017.5 996.9 -0.9---------
2019-06-18 16:00:00 26.3 12.4 17.8--- 4220.0wxwxwxwxwx3wx--31017.6 997.1 -1.2---------
2019-06-18 15:00:00 26.1 11.8 17.5--- 4120.0wxwxwxwx3wx---1017.7 997.2 -1.6---------
2019-06-18 14:00:00 26.9 11.8 17.8--- 3920.0wxwxwxwx1wx--11018.2 997.8 -1.2---------
2019-06-18 13:00:00 26.1 11.1 17.1--- 3920.0wxwxwxwx2wx--21018.8 998.3 -1.1---------
2019-06-18 12:00:00 25.0 12.2 17.2--- 4520.0wxwxwxwx2wx--21019.4 998.8 -0.9- 0.06------
2019-06-18 11:00:00 25.5 13.7 18.1--- 4820.0wxwxwxwx2wx--21019.6 999.0 -1.0---------
2019-06-18 10:00:00 25.4 13.9 18.2--- 4920.0wxwxwxwx2wx--21020.0 999.4 -0.7---------
2019-06-18 09:00:00 23.8 14.5 17.9--- 5620.0wxwxwxwx2wx--21020.4 999.7 -0.4---------
2019-06-18 08:00:00 22.7 14.8 17.6--- 6120.0wxwxwxwxwx2wx--21020.81000.0 0.3---------
2019-06-18 07:00:00 21.1 15.4 17.3--- 7020.0wxwxwxwxwx3wx---1021.01000.1 0.5---------
2019-06-18 06:00:00 18.8 14.5 15.9 20.9 16.9 17 7620.0wxwxwxwx1wx-811021.21000.1 0.7- 0.012----- 5.2
2019-06-18 05:00:00 18.0 14.1 15.4--- 7820.0wxwxwxwxwx3wx--31020.8 999.7 0.4---------
2019-06-18 04:00:00 17.2 13.9 15.0--- 8120.0wxwxwxwx2wx--21020.8 999.6 0.4---------
2019-06-18 03:00:00 17.0 13.7 14.8--- 8120.0wxwxwxwx2wx--21020.6 999.4 0.1---------
2019-06-18 02:00:00 17.1 14.0 15.0--- 8220.0wx-wxwx2wx---1020.5 999.3 0.0---------
2019-06-18 01:00:00 17.7 14.6 15.6--- 8220.0wx-wxwx3wx---1020.3 999.2 0.0---------
2019-06-18 00:00:00 17.7 14.8 15.7--- 8320.0wx-wxwx2wx--21020.4 999.3 0.3- 0.06------
2019-06-17 23:00:00 17.7 14.8 15.7--- 8320.0wx-wxwx2wx--21020.4 999.3 0.2---------
2019-06-17 22:00:00 17.8 14.7 15.7--- 8220.0wx-wxwx2wx--21020.3 999.2 0.3---------
2019-06-17 21:00:00 18.2 14.7 15.8--- 8020.0wxwxwxwxwx2wx--21020.1 999.0 0.8---------
2019-06-17 20:00:00 19.1 14.8 16.2--- 7620.0wxwxwxwx2wx--21020.1 999.1 1.0---------
2019-06-17 19:00:00 19.9 14.7 16.4--- 7220.0wxwxwxwx2wx---1019.9 998.9 0.6---------
2019-06-17 18:00:00 20.9 13.8 16.3 22.5 18.7- 6420.0wxwxwxwxwx2wx--21019.1 998.2 -0.1- 0.012------
2019-06-17 17:00:00 21.9 13.3 16.5--- 5820.0wxwxwxwxwx4wx--41018.9 998.1 -0.7---------
2019-06-17 16:00:00 21.4 14.3 16.8--- 6420.0wxwxwxwxwx3wx--31019.1 998.3 -0.7---------
2019-06-17 15:00:00 21.1 13.8 16.4--- 6320.0wxwxwxwxwx3wx--31019.2 998.3 -0.7---------
2019-06-17 14:00:00 21.3 14.0 16.6--- 6320.0wxwxwxwx5wx--51019.7 998.8 -0.2---------
2019-06-17 13:00:00 20.7 13.2 15.9--- 6220.0wxwxwxwx4wx--41019.9 999.0 0.2---------
2019-06-17 12:00:00 20.6 13.3 15.9--- 6320.0wxwxwxwx5wx--51019.9 999.0 0.6- 0.06------
2019-06-17 11:00:00 21.1 13.5 16.2--- 6220.0wxwxwxwx5wx--51019.9 999.0 0.5---------
2019-06-17 10:00:00 21.7 13.6 16.5--- 6020.0wxwxwxwxwx5wx--51019.6 998.8 0.3---------
2019-06-17 09:00:00 21.8 13.4 16.5--- 5920.0wxwxwxwxwx4wx--41019.2 998.4 0.1---------
2019-06-17 08:00:00 20.9 15.0 17.0--- 6920.0wxwxwxwxwx3wx--31019.4 998.5 0.5---------
2019-06-17 07:00:00 19.7 14.1 16.0--- 7020.0wxwxwxwx4wx--41019.5 998.5 0.5---------
2019-06-17 06:00:00 19.2 14.7 16.2 25.8 16.3 16 7520.0wxwxwxwx4wx--41019.3 998.3 0.8- 0.012----- 9.0
2019-06-17 05:00:00 18.1 15.0 16.0--- 8220.0wxwxwxwx4wx--41019.1 998.0 1.2---------
2019-06-17 04:00:00 16.8 15.1 15.6--- 9018.0wxwxwx3wx--31019.2 998.0 1.3---------
2019-06-17 03:00:00 16.4 14.9 15.3--- 9118.0wxwxwxwxwx2wx--21018.7 997.5 1.2---------
2019-06-17 02:00:00 16.9 15.1 15.6--- 8918.0wx-wxwx4wx--41017.9 996.8 0.3---------
2019-06-17 01:00:00 17.4 15.0 15.7--- 8620.0wx-wxwx4wx--41017.8 996.7 0.4---------
2019-06-17 00:00:00 18.3 15.7 16.5--- 8520.0wx-wxwx3wx--31017.3 996.3 0.9- 0.06------
4.5 ms

 

Print Friendly, PDF & Email